sensor_id;sensor_type;location;lat;lon;timestamp;P1;durP1;ratioP1;P2;durP2;ratioP2
79583;SDS011;69053;57.338;18.700;2024-03-22T00:00:34;7.82;;;2.95;;
79583;SDS011;69053;57.338;18.700;2024-03-22T00:03:34;7.95;;;3.28;;
79583;SDS011;69053;57.338;18.700;2024-03-22T00:06:34;7.82;;;3.13;;
79583;SDS011;69053;57.338;18.700;2024-03-22T00:09:35;6.47;;;3.28;;
79583;SDS011;69053;57.338;18.700;2024-03-22T00:12:35;8.63;;;2.95;;
79583;SDS011;69053;57.338;18.700;2024-03-22T00:15:36;7.20;;;3.55;;
79583;SDS011;69053;57.338;18.700;2024-03-22T00:18:37;9.73;;;3.35;;
79583;SDS011;69053;57.338;18.700;2024-03-22T00:21:37;7.40;;;3.58;;
79583;SDS011;69053;57.338;18.700;2024-03-22T00:24:37;10.02;;;4.28;;
79583;SDS011;69053;57.338;18.700;2024-03-22T00:27:38;7.88;;;3.42;;
79583;SDS011;69053;57.338;18.700;2024-03-22T00:30:38;8.02;;;3.10;;
79583;SDS011;69053;57.338;18.700;2024-03-22T00:33:39;9.57;;;3.33;;
79583;SDS011;69053;57.338;18.700;2024-03-22T00:36:39;6.85;;;3.05;;
79583;SDS011;69053;57.338;18.700;2024-03-22T00:39:40;7.05;;;3.53;;
79583;SDS011;69053;57.338;18.700;2024-03-22T00:42:40;5.70;;;3.08;;
79583;SDS011;69053;57.338;18.700;2024-03-22T00:45:41;8.95;;;3.22;;
79583;SDS011;69053;57.338;18.700;2024-03-22T00:48:41;6.88;;;3.55;;
79583;SDS011;69053;57.338;18.700;2024-03-22T00:51:42;5.30;;;2.78;;
79583;SDS011;69053;57.338;18.700;2024-03-22T00:54:44;6.40;;;3.15;;
79583;SDS011;69053;57.338;18.700;2024-03-22T00:57:44;7.75;;;3.67;;
79583;SDS011;69053;57.338;18.700;2024-03-22T01:00:45;7.70;;;3.60;;
79583;SDS011;69053;57.338;18.700;2024-03-22T01:03:46;12.02;;;4.05;;
79583;SDS011;69053;57.338;18.700;2024-03-22T01:06:46;12.85;;;5.15;;
79583;SDS011;69053;57.338;18.700;2024-03-22T01:09:46;10.93;;;4.00;;
79583;SDS011;69053;57.338;18.700;2024-03-22T01:12:47;10.55;;;4.35;;
79583;SDS011;69053;57.338;18.700;2024-03-22T01:15:47;14.25;;;4.95;;
79583;SDS011;69053;57.338;18.700;2024-03-22T01:18:48;12.48;;;5.20;;
79583;SDS011;69053;57.338;18.700;2024-03-22T01:21:49;16.95;;;5.25;;
79583;SDS011;69053;57.338;18.700;2024-03-22T01:24:49;12.55;;;4.53;;
79583;SDS011;69053;57.338;18.700;2024-03-22T01:27:50;16.05;;;5.35;;
79583;SDS011;69053;57.338;18.700;2024-03-22T01:30:50;18.50;;;6.22;;
79583;SDS011;69053;57.338;18.700;2024-03-22T01:33:50;17.50;;;6.05;;
79583;SDS011;69053;57.338;18.700;2024-03-22T01:36:51;21.15;;;6.10;;
79583;SDS011;69053;57.338;18.700;2024-03-22T01:39:52;18.83;;;7.28;;
79583;SDS011;69053;57.338;18.700;2024-03-22T01:42:53;21.20;;;6.60;;
79583;SDS011;69053;57.338;18.700;2024-03-22T01:45:55;24.48;;;6.15;;
79583;SDS011;69053;57.338;18.700;2024-03-22T01:48:56;26.90;;;7.15;;
79583;SDS011;69053;57.338;18.700;2024-03-22T01:51:56;23.70;;;8.27;;
79583;SDS011;69053;57.338;18.700;2024-03-22T01:54:57;25.23;;;8.02;;
79583;SDS011;69053;57.338;18.700;2024-03-22T01:57:58;22.23;;;6.82;;
79583;SDS011;69053;57.338;18.700;2024-03-22T02:00:58;28.38;;;8.60;;
79583;SDS011;69053;57.338;18.700;2024-03-22T02:03:59;27.80;;;8.25;;
79583;SDS011;69053;57.338;18.700;2024-03-22T02:06:59;26.83;;;8.57;;
79583;SDS011;69053;57.338;18.700;2024-03-22T02:10:00;25.35;;;8.13;;
79583;SDS011;69053;57.338;18.700;2024-03-22T02:13:00;22.42;;;6.97;;
79583;SDS011;69053;57.338;18.700;2024-03-22T02:16:04;26.40;;;8.75;;
79583;SDS011;69053;57.338;18.700;2024-03-22T02:19:05;27.75;;;8.02;;
79583;SDS011;69053;57.338;18.700;2024-03-22T02:22:05;28.75;;;8.40;;
79583;SDS011;69053;57.338;18.700;2024-03-22T02:25:06;20.70;;;8.45;;
79583;SDS011;69053;57.338;18.700;2024-03-22T02:28:08;23.42;;;8.18;;
79583;SDS011;69053;57.338;18.700;2024-03-22T02:31:08;23.25;;;7.72;;
79583;SDS011;69053;57.338;18.700;2024-03-22T02:34:09;20.95;;;7.60;;
79583;SDS011;69053;57.338;18.700;2024-03-22T02:37:09;16.77;;;5.88;;
79583;SDS011;69053;57.338;18.700;2024-03-22T02:40:10;25.08;;;7.82;;
79583;SDS011;69053;57.338;18.700;2024-03-22T02:43:11;23.73;;;8.52;;
79583;SDS011;69053;57.338;18.700;2024-03-22T02:46:12;20.73;;;6.82;;
79583;SDS011;69053;57.338;18.700;2024-03-22T02:49:12;23.15;;;8.15;;
79583;SDS011;69053;57.338;18.700;2024-03-22T02:52:13;22.60;;;8.43;;
79583;SDS011;69053;57.338;18.700;2024-03-22T02:55:13;17.50;;;6.80;;
79583;SDS011;69053;57.338;18.700;2024-03-22T02:58:14;20.88;;;7.22;;
79583;SDS011;69053;57.338;18.700;2024-03-22T03:01:14;22.13;;;8.18;;
79583;SDS011;69053;57.338;18.700;2024-03-22T03:04:15;20.13;;;7.65;;
79583;SDS011;69053;57.338;18.700;2024-03-22T03:07:15;19.48;;;7.03;;
79583;SDS011;69053;57.338;18.700;2024-03-22T03:10:16;21.33;;;7.05;;
79583;SDS011;69053;57.338;18.700;2024-03-22T03:13:17;17.65;;;6.97;;
79583;SDS011;69053;57.338;18.700;2024-03-22T03:16:17;17.58;;;7.15;;
79583;SDS011;69053;57.338;18.700;2024-03-22T03:19:17;17.45;;;6.07;;
79583;SDS011;69053;57.338;18.700;2024-03-22T03:22:18;20.33;;;6.97;;
79583;SDS011;69053;57.338;18.700;2024-03-22T03:25:18;16.08;;;6.60;;
79583;SDS011;69053;57.338;18.700;2024-03-22T03:28:19;13.65;;;5.97;;
79583;SDS011;69053;57.338;18.700;2024-03-22T03:31:19;14.07;;;5.70;;
79583;SDS011;69053;57.338;18.700;2024-03-22T03:34:20;14.82;;;5.40;;
79583;SDS011;69053;57.338;18.700;2024-03-22T03:37:20;15.40;;;5.60;;
79583;SDS011;69053;57.338;18.700;2024-03-22T03:40:21;12.63;;;4.70;;
79583;SDS011;69053;57.338;18.700;2024-03-22T03:43:24;14.00;;;4.97;;
79583;SDS011;69053;57.338;18.700;2024-03-22T03:46:24;11.82;;;5.00;;
79583;SDS011;69053;57.338;18.700;2024-03-22T03:49:25;15.50;;;5.43;;
79583;SDS011;69053;57.338;18.700;2024-03-22T03:52:25;11.85;;;5.07;;
79583;SDS011;69053;57.338;18.700;2024-03-22T03:55:26;12.25;;;4.75;;
79583;SDS011;69053;57.338;18.700;2024-03-22T03:58:26;11.75;;;4.57;;
79583;SDS011;69053;57.338;18.700;2024-03-22T04:01:27;12.38;;;4.85;;
79583;SDS011;69053;57.338;18.700;2024-03-22T04:04:27;13.38;;;4.28;;
79583;SDS011;69053;57.338;18.700;2024-03-22T04:07:28;16.60;;;4.78;;
79583;SDS011;69053;57.338;18.700;2024-03-22T04:10:29;13.13;;;4.90;;
79583;SDS011;69053;57.338;18.700;2024-03-22T04:13:29;10.13;;;4.18;;
79583;SDS011;69053;57.338;18.700;2024-03-22T04:16:30;11.88;;;3.75;;
79583;SDS011;69053;57.338;18.700;2024-03-22T04:19:31;11.43;;;4.40;;
79583;SDS011;69053;57.338;18.700;2024-03-22T04:22:32;12.98;;;4.15;;
79583;SDS011;69053;57.338;18.700;2024-03-22T04:25:32;9.48;;;4.25;;
79583;SDS011;69053;57.338;18.700;2024-03-22T04:28:33;12.40;;;4.25;;
79583;SDS011;69053;57.338;18.700;2024-03-22T04:31:33;8.25;;;3.33;;
79583;SDS011;69053;57.338;18.700;2024-03-22T04:34:33;10.48;;;3.40;;
79583;SDS011;69053;57.338;18.700;2024-03-22T04:37:34;10.50;;;4.22;;
79583;SDS011;69053;57.338;18.700;2024-03-22T04:40:34;9.82;;;3.60;;
79583;SDS011;69053;57.338;18.700;2024-03-22T04:43:35;9.65;;;3.72;;
79583;SDS011;69053;57.338;18.700;2024-03-22T04:46:35;7.63;;;3.50;;
79583;SDS011;69053;57.338;18.700;2024-03-22T04:49:36;6.65;;;3.08;;
79583;SDS011;69053;57.338;18.700;2024-03-22T04:52:36;8.48;;;3.35;;
79583;SDS011;69053;57.338;18.700;2024-03-22T04:55:36;7.22;;;3.60;;
79583;SDS011;69053;57.338;18.700;2024-03-22T04:58:37;9.57;;;3.33;;
79583;SDS011;69053;57.338;18.700;2024-03-22T05:01:38;7.43;;;2.47;;
79583;SDS011;69053;57.338;18.700;2024-03-22T05:04:38;7.80;;;3.17;;
79583;SDS011;69053;57.338;18.700;2024-03-22T05:07:39;11.13;;;3.40;;
79583;SDS011;69053;57.338;18.700;2024-03-22T05:10:39;7.22;;;2.88;;
79583;SDS011;69053;57.338;18.700;2024-03-22T05:13:40;8.07;;;2.80;;
79583;SDS011;69053;57.338;18.700;2024-03-22T05:16:40;6.55;;;2.83;;
79583;SDS011;69053;57.338;18.700;2024-03-22T05:19:41;6.60;;;2.28;;
79583;SDS011;69053;57.338;18.700;2024-03-22T05:22:41;6.60;;;3.45;;
79583;SDS011;69053;57.338;18.700;2024-03-22T05:25:42;8.90;;;2.83;;
79583;SDS011;69053;57.338;18.700;2024-03-22T05:28:43;6.25;;;2.33;;
79583;SDS011;69053;57.338;18.700;2024-03-22T05:31:49;8.35;;;2.53;;
79583;SDS011;69053;57.338;18.700;2024-03-22T05:34:51;5.72;;;2.60;;
79583;SDS011;69053;57.338;18.700;2024-03-22T05:37:52;5.07;;;2.20;;
79583;SDS011;69053;57.338;18.700;2024-03-22T05:40:53;5.50;;;2.63;;
79583;SDS011;69053;57.338;18.700;2024-03-22T05:43:53;5.68;;;2.25;;
79583;SDS011;69053;57.338;18.700;2024-03-22T05:46:54;5.07;;;2.30;;
79583;SDS011;69053;57.338;18.700;2024-03-22T05:49:54;6.07;;;2.67;;
79583;SDS011;69053;57.338;18.700;2024-03-22T05:52:54;7.40;;;3.03;;
79583;SDS011;69053;57.338;18.700;2024-03-22T05:55:55;8.48;;;2.72;;
79583;SDS011;69053;57.338;18.700;2024-03-22T05:58:55;5.40;;;2.30;;
79583;SDS011;69053;57.338;18.700;2024-03-22T06:01:56;6.22;;;2.42;;
79583;SDS011;69053;57.338;18.700;2024-03-22T06:04:56;5.90;;;2.67;;
79583;SDS011;69053;57.338;18.700;2024-03-22T06:07:57;9.40;;;3.05;;
79583;SDS011;69053;57.338;18.700;2024-03-22T06:10:57;7.10;;;2.72;;
79583;SDS011;69053;57.338;18.700;2024-03-22T06:13:58;6.10;;;2.72;;
79583;SDS011;69053;57.338;18.700;2024-03-22T06:16:58;7.70;;;2.80;;
79583;SDS011;69053;57.338;18.700;2024-03-22T06:19:58;6.80;;;3.08;;
79583;SDS011;69053;57.338;18.700;2024-03-22T06:23:00;9.25;;;3.33;;
79583;SDS011;69053;57.338;18.700;2024-03-22T06:26:00;6.03;;;2.47;;
79583;SDS011;69053;57.338;18.700;2024-03-22T06:29:01;7.97;;;3.55;;
79583;SDS011;69053;57.338;18.700;2024-03-22T06:32:01;9.65;;;3.47;;
79583;SDS011;69053;57.338;18.700;2024-03-22T06:35:01;9.00;;;3.30;;
79583;SDS011;69053;57.338;18.700;2024-03-22T06:38:05;10.35;;;3.75;;
79583;SDS011;69053;57.338;18.700;2024-03-22T06:41:06;6.55;;;3.13;;
79583;SDS011;69053;57.338;18.700;2024-03-22T06:44:06;6.93;;;2.72;;
79583;SDS011;69053;57.338;18.700;2024-03-22T06:47:08;8.43;;;3.85;;
79583;SDS011;69053;57.338;18.700;2024-03-22T06:50:09;8.52;;;3.05;;
79583;SDS011;69053;57.338;18.700;2024-03-22T06:53:09;8.50;;;3.60;;
79583;SDS011;69053;57.338;18.700;2024-03-22T06:56:10;9.50;;;4.20;;
79583;SDS011;69053;57.338;18.700;2024-03-22T06:59:11;8.18;;;4.07;;
79583;SDS011;69053;57.338;18.700;2024-03-22T07:02:12;9.55;;;4.38;;
79583;SDS011;69053;57.338;18.700;2024-03-22T07:05:14;9.00;;;3.90;;
79583;SDS011;69053;57.338;18.700;2024-03-22T07:08:14;9.73;;;3.88;;
79583;SDS011;69053;57.338;18.700;2024-03-22T07:11:15;10.50;;;3.78;;
79583;SDS011;69053;57.338;18.700;2024-03-22T07:14:15;10.15;;;3.78;;
79583;SDS011;69053;57.338;18.700;2024-03-22T07:17:16;12.15;;;4.10;;
79583;SDS011;69053;57.338;18.700;2024-03-22T07:20:16;6.68;;;3.50;;
79583;SDS011;69053;57.338;18.700;2024-03-22T07:23:18;11.70;;;4.07;;
79583;SDS011;69053;57.338;18.700;2024-03-22T07:26:19;10.60;;;4.15;;
79583;SDS011;69053;57.338;18.700;2024-03-22T07:29:19;8.88;;;3.78;;
79583;SDS011;69053;57.338;18.700;2024-03-22T07:32:20;12.77;;;4.13;;
79583;SDS011;69053;57.338;18.700;2024-03-22T07:35:21;12.43;;;4.43;;
79583;SDS011;69053;57.338;18.700;2024-03-22T07:38:21;9.82;;;3.47;;
79583;SDS011;69053;57.338;18.700;2024-03-22T07:41:22;10.48;;;3.33;;
79583;SDS011;69053;57.338;18.700;2024-03-22T07:44:22;10.95;;;4.13;;
79583;SDS011;69053;57.338;18.700;2024-03-22T07:47:28;10.32;;;3.75;;
79583;SDS011;69053;57.338;18.700;2024-03-22T07:50:29;10.25;;;4.20;;
79583;SDS011;69053;57.338;18.700;2024-03-22T07:53:30;11.38;;;4.53;;
79583;SDS011;69053;57.338;18.700;2024-03-22T07:56:30;12.15;;;4.20;;
79583;SDS011;69053;57.338;18.700;2024-03-22T07:59:30;14.77;;;4.93;;
79583;SDS011;69053;57.338;18.700;2024-03-22T08:02:38;14.35;;;5.78;;
79583;SDS011;69053;57.338;18.700;2024-03-22T08:05:39;13.23;;;5.05;;
79583;SDS011;69053;57.338;18.700;2024-03-22T08:08:39;14.88;;;6.82;;
79583;SDS011;69053;57.338;18.700;2024-03-22T08:11:40;17.17;;;6.10;;
79583;SDS011;69053;57.338;18.700;2024-03-22T08:14:40;16.35;;;5.63;;
79583;SDS011;69053;57.338;18.700;2024-03-22T08:17:40;17.92;;;5.95;;
79583;SDS011;69053;57.338;18.700;2024-03-22T08:20:41;14.70;;;5.45;;
79583;SDS011;69053;57.338;18.700;2024-03-22T08:23:42;15.40;;;6.60;;
79583;SDS011;69053;57.338;18.700;2024-03-22T08:26:42;20.05;;;7.28;;
79583;SDS011;69053;57.338;18.700;2024-03-22T08:29:45;21.98;;;6.78;;
79583;SDS011;69053;57.338;18.700;2024-03-22T08:32:45;17.65;;;6.88;;
79583;SDS011;69053;57.338;18.700;2024-03-22T08:35:46;19.20;;;6.78;;
79583;SDS011;69053;57.338;18.700;2024-03-22T08:38:48;20.70;;;7.05;;
79583;SDS011;69053;57.338;18.700;2024-03-22T08:41:48;17.77;;;6.30;;
79583;SDS011;69053;57.338;18.700;2024-03-22T08:44:49;23.15;;;5.95;;
79583;SDS011;69053;57.338;18.700;2024-03-22T08:47:49;16.73;;;5.88;;
79583;SDS011;69053;57.338;18.700;2024-03-22T08:50:50;16.02;;;6.55;;
79583;SDS011;69053;57.338;18.700;2024-03-22T08:53:50;14.85;;;5.50;;
79583;SDS011;69053;57.338;18.700;2024-03-22T08:56:51;16.25;;;5.50;;
79583;SDS011;69053;57.338;18.700;2024-03-22T08:59:51;14.30;;;4.82;;
79583;SDS011;69053;57.338;18.700;2024-03-22T09:02:52;12.43;;;6.45;;
79583;SDS011;69053;57.338;18.700;2024-03-22T09:05:52;15.05;;;5.22;;
79583;SDS011;69053;57.338;18.700;2024-03-22T09:08:53;14.65;;;5.38;;
79583;SDS011;69053;57.338;18.700;2024-03-22T09:11:57;14.98;;;5.55;;
79583;SDS011;69053;57.338;18.700;2024-03-22T09:14:58;16.80;;;5.40;;
79583;SDS011;69053;57.338;18.700;2024-03-22T09:17:58;14.35;;;5.70;;
79583;SDS011;69053;57.338;18.700;2024-03-22T09:20:59;14.23;;;5.60;;
79583;SDS011;69053;57.338;18.700;2024-03-22T09:23:59;17.10;;;6.07;;
79583;SDS011;69053;57.338;18.700;2024-03-22T09:26:59;16.25;;;6.50;;
79583;SDS011;69053;57.338;18.700;2024-03-22T09:30:00;16.38;;;5.45;;
79583;SDS011;69053;57.338;18.700;2024-03-22T09:33:01;15.65;;;6.03;;
79583;SDS011;69053;57.338;18.700;2024-03-22T09:36:03;16.20;;;6.28;;
79583;SDS011;69053;57.338;18.700;2024-03-22T09:39:04;16.55;;;5.70;;
79583;SDS011;69053;57.338;18.700;2024-03-22T09:42:05;14.30;;;6.35;;
79583;SDS011;69053;57.338;18.700;2024-03-22T09:45:09;14.50;;;6.03;;
79583;SDS011;69053;57.338;18.700;2024-03-22T09:48:13;15.52;;;7.78;;
79583;SDS011;69053;57.338;18.700;2024-03-22T09:51:17;14.35;;;5.85;;
79583;SDS011;69053;57.338;18.700;2024-03-22T09:54:18;18.80;;;6.53;;
79583;SDS011;69053;57.338;18.700;2024-03-22T09:57:18;11.45;;;5.30;;
79583;SDS011;69053;57.338;18.700;2024-03-22T10:00:21;12.55;;;4.93;;
79583;SDS011;69053;57.338;18.700;2024-03-22T10:03:22;11.63;;;5.35;;
79583;SDS011;69053;57.338;18.700;2024-03-22T10:06:22;11.23;;;4.75;;
79583;SDS011;69053;57.338;18.700;2024-03-22T10:09:29;9.82;;;4.97;;
79583;SDS011;69053;57.338;18.700;2024-03-22T10:12:30;13.23;;;4.93;;
79583;SDS011;69053;57.338;18.700;2024-03-22T10:15:30;10.88;;;4.50;;
79583;SDS011;69053;57.338;18.700;2024-03-22T10:18:34;10.90;;;4.75;;
79583;SDS011;69053;57.338;18.700;2024-03-22T10:21:34;9.93;;;4.88;;
79583;SDS011;69053;57.338;18.700;2024-03-22T10:24:35;10.05;;;4.35;;
79583;SDS011;69053;57.338;18.700;2024-03-22T10:27:38;9.80;;;4.20;;
79583;SDS011;69053;57.338;18.700;2024-03-22T10:30:39;10.85;;;4.32;;
79583;SDS011;69053;57.338;18.700;2024-03-22T10:33:41;7.40;;;4.05;;
79583;SDS011;69053;57.338;18.700;2024-03-22T10:36:45;7.43;;;3.60;;
79583;SDS011;69053;57.338;18.700;2024-03-22T10:39:46;7.65;;;3.40;;
79583;SDS011;69053;57.338;18.700;2024-03-22T10:42:50;8.48;;;4.13;;
79583;SDS011;69053;57.338;18.700;2024-03-22T10:45:51;10.13;;;4.45;;
79583;SDS011;69053;57.338;18.700;2024-03-22T10:48:53;16.48;;;4.47;;
79583;SDS011;69053;57.338;18.700;2024-03-22T10:51:57;8.85;;;4.05;;
79583;SDS011;69053;57.338;18.700;2024-03-22T10:55:01;10.15;;;4.75;;
79583;SDS011;69053;57.338;18.700;2024-03-22T10:58:04;8.88;;;4.80;;
79583;SDS011;69053;57.338;18.700;2024-03-22T11:01:05;9.35;;;3.90;;
79583;SDS011;69053;57.338;18.700;2024-03-22T11:04:06;7.20;;;3.78;;
79583;SDS011;69053;57.338;18.700;2024-03-22T11:07:06;9.15;;;3.60;;
79583;SDS011;69053;57.338;18.700;2024-03-22T11:10:08;12.10;;;4.82;;
79583;SDS011;69053;57.338;18.700;2024-03-22T11:13:08;8.68;;;3.70;;
79583;SDS011;69053;57.338;18.700;2024-03-22T11:16:09;9.30;;;4.15;;
79583;SDS011;69053;57.338;18.700;2024-03-22T11:19:10;9.38;;;4.18;;
79583;SDS011;69053;57.338;18.700;2024-03-22T11:22:10;9.40;;;4.50;;
79583;SDS011;69053;57.338;18.700;2024-03-22T11:25:14;9.63;;;4.22;;
79583;SDS011;69053;57.338;18.700;2024-03-22T11:28:15;10.00;;;4.88;;
79583;SDS011;69053;57.338;18.700;2024-03-22T11:31:16;10.60;;;5.03;;
79583;SDS011;69053;57.338;18.700;2024-03-22T11:34:16;9.77;;;4.43;;
79583;SDS011;69053;57.338;18.700;2024-03-22T11:37:17;9.55;;;4.85;;
79583;SDS011;69053;57.338;18.700;2024-03-22T11:40:17;10.68;;;4.68;;
79583;SDS011;69053;57.338;18.700;2024-03-22T11:43:18;12.02;;;5.50;;
79583;SDS011;69053;57.338;18.700;2024-03-22T11:46:18;11.05;;;5.22;;
79583;SDS011;69053;57.338;18.700;2024-03-22T11:49:22;11.40;;;5.82;;
79583;SDS011;69053;57.338;18.700;2024-03-22T11:52:25;12.95;;;6.18;;
79583;SDS011;69053;57.338;18.700;2024-03-22T11:55:26;9.95;;;4.07;;
79583;SDS011;69053;57.338;18.700;2024-03-22T11:58:27;11.75;;;6.20;;
79583;SDS011;69053;57.338;18.700;2024-03-22T12:01:28;11.07;;;5.80;;
79583;SDS011;69053;57.338;18.700;2024-03-22T12:04:29;12.57;;;5.20;;
79583;SDS011;69053;57.338;18.700;2024-03-22T12:07:29;11.95;;;5.45;;
79583;SDS011;69053;57.338;18.700;2024-03-22T12:10:30;13.20;;;5.68;;
79583;SDS011;69053;57.338;18.700;2024-03-22T12:13:30;13.30;;;5.47;;
79583;SDS011;69053;57.338;18.700;2024-03-22T12:16:31;11.68;;;6.20;;
79583;SDS011;69053;57.338;18.700;2024-03-22T12:19:32;10.35;;;5.43;;
79583;SDS011;69053;57.338;18.700;2024-03-22T12:22:33;10.15;;;5.53;;
79583;SDS011;69053;57.338;18.700;2024-03-22T12:25:33;10.35;;;5.57;;
79583;SDS011;69053;57.338;18.700;2024-03-22T12:28:34;13.52;;;5.18;;
79583;SDS011;69053;57.338;18.700;2024-03-22T12:31:34;14.52;;;5.93;;
79583;SDS011;69053;57.338;18.700;2024-03-22T12:34:35;12.45;;;5.50;;
79583;SDS011;69053;57.338;18.700;2024-03-22T12:37:35;9.40;;;4.68;;
79583;SDS011;69053;57.338;18.700;2024-03-22T12:40:36;11.30;;;4.88;;
79583;SDS011;69053;57.338;18.700;2024-03-22T12:43:37;11.93;;;5.00;;
79583;SDS011;69053;57.338;18.700;2024-03-22T12:46:38;10.23;;;4.75;;
79583;SDS011;69053;57.338;18.700;2024-03-22T12:49:38;10.07;;;5.25;;
79583;SDS011;69053;57.338;18.700;2024-03-22T12:52:39;10.07;;;4.75;;
79583;SDS011;69053;57.338;18.700;2024-03-22T12:55:40;10.80;;;4.85;;
79583;SDS011;69053;57.338;18.700;2024-03-22T12:58:40;8.88;;;4.15;;
79583;SDS011;69053;57.338;18.700;2024-03-22T13:01:41;8.70;;;4.63;;
79583;SDS011;69053;57.338;18.700;2024-03-22T13:04:41;12.80;;;5.72;;
79583;SDS011;69053;57.338;18.700;2024-03-22T13:07:43;12.90;;;6.47;;
79583;SDS011;69053;57.338;18.700;2024-03-22T13:10:43;14.27;;;6.22;;
79583;SDS011;69053;57.338;18.700;2024-03-22T13:13:44;11.82;;;5.82;;
79583;SDS011;69053;57.338;18.700;2024-03-22T13:16:45;14.15;;;6.15;;
79583;SDS011;69053;57.338;18.700;2024-03-22T13:19:46;14.80;;;7.18;;
79583;SDS011;69053;57.338;18.700;2024-03-22T13:22:47;16.15;;;7.20;;
79583;SDS011;69053;57.338;18.700;2024-03-22T13:25:47;18.60;;;7.88;;
79583;SDS011;69053;57.338;18.700;2024-03-22T13:28:48;18.52;;;8.80;;
79583;SDS011;69053;57.338;18.700;2024-03-22T13:31:48;18.77;;;8.93;;
79583;SDS011;69053;57.338;18.700;2024-03-22T13:34:48;21.58;;;9.63;;
79583;SDS011;69053;57.338;18.700;2024-03-22T13:37:50;22.30;;;10.07;;
79583;SDS011;69053;57.338;18.700;2024-03-22T13:40:54;13.07;;;7.00;;
79583;SDS011;69053;57.338;18.700;2024-03-22T13:43:58;18.63;;;9.05;;
79583;SDS011;69053;57.338;18.700;2024-03-22T13:47:03;23.88;;;10.07;;
79583;SDS011;69053;57.338;18.700;2024-03-22T13:50:05;22.15;;;9.20;;
79583;SDS011;69053;57.338;18.700;2024-03-22T13:53:06;19.20;;;8.57;;
79583;SDS011;69053;57.338;18.700;2024-03-22T13:56:08;17.30;;;9.38;;
79583;SDS011;69053;57.338;18.700;2024-03-22T13:59:08;18.52;;;7.97;;
79583;SDS011;69053;57.338;18.700;2024-03-22T14:02:09;19.15;;;8.98;;
79583;SDS011;69053;57.338;18.700;2024-03-22T14:05:10;20.67;;;9.48;;
79583;SDS011;69053;57.338;18.700;2024-03-22T14:08:11;20.98;;;8.60;;
79583;SDS011;69053;57.338;18.700;2024-03-22T14:11:12;18.38;;;9.90;;
79583;SDS011;69053;57.338;18.700;2024-03-22T14:14:12;18.75;;;9.45;;
79583;SDS011;69053;57.338;18.700;2024-03-22T14:17:13;17.08;;;8.65;;
79583;SDS011;69053;57.338;18.700;2024-03-22T14:20:13;20.75;;;9.93;;
79583;SDS011;69053;57.338;18.700;2024-03-22T14:23:14;16.30;;;8.15;;
79583;SDS011;69053;57.338;18.700;2024-03-22T14:26:15;17.23;;;8.85;;
79583;SDS011;69053;57.338;18.700;2024-03-22T14:29:18;18.45;;;9.20;;
79583;SDS011;69053;57.338;18.700;2024-03-22T14:32:19;19.48;;;8.35;;
79583;SDS011;69053;57.338;18.700;2024-03-22T14:35:19;16.02;;;7.78;;
79583;SDS011;69053;57.338;18.700;2024-03-22T14:38:22;14.82;;;7.47;;
79583;SDS011;69053;57.338;18.700;2024-03-22T14:41:22;16.55;;;8.70;;
79583;SDS011;69053;57.338;18.700;2024-03-22T14:44:23;13.05;;;8.05;;
79583;SDS011;69053;57.338;18.700;2024-03-22T14:47:23;16.23;;;6.95;;
79583;SDS011;69053;57.338;18.700;2024-03-22T14:50:23;16.05;;;7.13;;
79583;SDS011;69053;57.338;18.700;2024-03-22T14:53:24;14.85;;;7.03;;
79583;SDS011;69053;57.338;18.700;2024-03-22T14:56:24;17.55;;;7.85;;
79583;SDS011;69053;57.338;18.700;2024-03-22T14:59:28;13.95;;;6.82;;
79583;SDS011;69053;57.338;18.700;2024-03-22T15:02:29;16.35;;;7.65;;
79583;SDS011;69053;57.338;18.700;2024-03-22T15:05:29;15.88;;;6.90;;
79583;SDS011;69053;57.338;18.700;2024-03-22T15:08:31;16.83;;;6.50;;
79583;SDS011;69053;57.338;18.700;2024-03-22T15:11:32;13.02;;;6.72;;
79583;SDS011;69053;57.338;18.700;2024-03-22T15:14:32;12.65;;;7.07;;
79583;SDS011;69053;57.338;18.700;2024-03-22T15:17:33;14.40;;;7.15;;
79583;SDS011;69053;57.338;18.700;2024-03-22T15:20:34;14.05;;;6.20;;
79583;SDS011;69053;57.338;18.700;2024-03-22T15:23:34;14.48;;;6.00;;
79583;SDS011;69053;57.338;18.700;2024-03-22T15:26:35;9.68;;;4.90;;
79583;SDS011;69053;57.338;18.700;2024-03-22T15:29:36;8.82;;;4.57;;
79583;SDS011;69053;57.338;18.700;2024-03-22T15:32:37;15.93;;;6.20;;
79583;SDS011;69053;57.338;18.700;2024-03-22T15:35:38;13.63;;;5.70;;
79583;SDS011;69053;57.338;18.700;2024-03-22T15:38:39;13.10;;;5.80;;
79583;SDS011;69053;57.338;18.700;2024-03-22T15:41:40;12.13;;;5.32;;
79583;SDS011;69053;57.338;18.700;2024-03-22T15:44:40;10.35;;;5.45;;
79583;SDS011;69053;57.338;18.700;2024-03-22T15:47:40;11.00;;;5.05;;
79583;SDS011;69053;57.338;18.700;2024-03-22T15:50:41;12.40;;;5.30;;
79583;SDS011;69053;57.338;18.700;2024-03-22T15:53:41;10.45;;;5.45;;
79583;SDS011;69053;57.338;18.700;2024-03-22T15:56:42;13.68;;;5.43;;
79583;SDS011;69053;57.338;18.700;2024-03-22T15:59:42;10.95;;;4.88;;
79583;SDS011;69053;57.338;18.700;2024-03-22T16:02:43;13.52;;;5.00;;
79583;SDS011;69053;57.338;18.700;2024-03-22T16:05:53;14.90;;;5.10;;
79583;SDS011;69053;57.338;18.700;2024-03-22T16:08:53;12.20;;;5.45;;
79583;SDS011;69053;57.338;18.700;2024-03-22T16:11:54;11.45;;;4.97;;
79583;SDS011;69053;57.338;18.700;2024-03-22T16:14:54;8.77;;;4.40;;
79583;SDS011;69053;57.338;18.700;2024-03-22T16:17:54;11.23;;;4.03;;
79583;SDS011;69053;57.338;18.700;2024-03-22T16:20:55;11.63;;;4.22;;
79583;SDS011;69053;57.338;18.700;2024-03-22T16:23:55;10.50;;;3.70;;
79583;SDS011;69053;57.338;18.700;2024-03-22T16:26:56;6.15;;;3.38;;
79583;SDS011;69053;57.338;18.700;2024-03-22T16:29:56;13.65;;;3.50;;
79583;SDS011;69053;57.338;18.700;2024-03-22T16:32:57;9.35;;;2.90;;
79583;SDS011;69053;57.338;18.700;2024-03-22T16:35:58;10.30;;;3.25;;
79583;SDS011;69053;57.338;18.700;2024-03-22T16:38:59;10.77;;;3.38;;
79583;SDS011;69053;57.338;18.700;2024-03-22T16:41:59;9.80;;;3.40;;
79583;SDS011;69053;57.338;18.700;2024-03-22T16:45:00;11.38;;;3.33;;
79583;SDS011;69053;57.338;18.700;2024-03-22T16:48:01;10.50;;;3.78;;
79583;SDS011;69053;57.338;18.700;2024-03-22T16:51:02;13.95;;;3.95;;
79583;SDS011;69053;57.338;18.700;2024-03-22T16:54:03;8.75;;;3.60;;
79583;SDS011;69053;57.338;18.700;2024-03-22T16:57:03;12.27;;;3.33;;
79583;SDS011;69053;57.338;18.700;2024-03-22T17:00:04;9.55;;;3.20;;
79583;SDS011;69053;57.338;18.700;2024-03-22T17:03:08;11.45;;;4.40;;
79583;SDS011;69053;57.338;18.700;2024-03-22T17:06:08;7.15;;;2.95;;
79583;SDS011;69053;57.338;18.700;2024-03-22T17:09:09;13.02;;;4.85;;
79583;SDS011;69053;57.338;18.700;2024-03-22T17:12:10;15.18;;;4.63;;
79583;SDS011;69053;57.338;18.700;2024-03-22T17:15:10;11.82;;;4.53;;
79583;SDS011;69053;57.338;18.700;2024-03-22T17:18:11;13.18;;;4.50;;
79583;SDS011;69053;57.338;18.700;2024-03-22T17:21:11;10.60;;;4.90;;
79583;SDS011;69053;57.338;18.700;2024-03-22T17:24:12;11.68;;;4.40;;
79583;SDS011;69053;57.338;18.700;2024-03-22T17:27:12;11.93;;;5.38;;
79583;SDS011;69053;57.338;18.700;2024-03-22T17:30:13;12.23;;;4.68;;
79583;SDS011;69053;57.338;18.700;2024-03-22T17:33:13;13.85;;;5.07;;
79583;SDS011;69053;57.338;18.700;2024-03-22T17:36:14;16.67;;;6.93;;
79583;SDS011;69053;57.338;18.700;2024-03-22T17:39:14;12.90;;;5.10;;
79583;SDS011;69053;57.338;18.700;2024-03-22T17:42:15;15.30;;;5.55;;